createdAt,value
2023-04-03T00:00:58.672Z,95616.63
2023-04-03T00:03:26.330Z,95613.03
2023-04-03T00:05:55.642Z,95614.69
2023-04-03T00:08:23.344Z,95614.41
2023-04-03T00:10:51.005Z,95612.75
2023-04-03T00:13:18.956Z,95611.78
2023-04-03T00:15:47.065Z,95613.44
2023-04-03T00:18:14.919Z,95614.28
2023-04-03T00:20:42.555Z,95621.28
2023-04-03T00:23:11.592Z,95617.84
2023-04-03T00:25:39.218Z,95617.69
2023-04-03T00:28:06.947Z,95615.09
2023-04-03T00:30:35.157Z,95616.75
2023-04-03T00:33:03.324Z,95615.91
2023-04-03T00:35:31.444Z,95612.47
2023-04-03T00:37:59.068Z,95617.69
2023-04-03T00:40:28.806Z,95613.31
2023-04-03T00:42:59.520Z,95614.28
2023-04-03T00:45:35.354Z,95619.50
2023-04-03T00:48:06.681Z,95619.50
2023-04-03T00:50:37.626Z,95617.69
2023-04-03T00:53:08.147Z,95616.06
2023-04-03T00:55:38.356Z,95606.44
2023-04-03T00:58:08.093Z,95613.31
2023-04-03T01:00:38.236Z,95617.59
2023-04-03T01:03:06.265Z,95611.38
2023-04-03T01:05:33.982Z,95609.59
2023-04-03T01:08:02.946Z,95617.28
2023-04-03T01:10:30.600Z,95619.78
2023-04-03T01:13:01.762Z,95616.19
2023-04-03T01:15:31.261Z,95620.63
2023-04-03T01:18:01.152Z,95606.59
2023-04-03T01:21:11.307Z,95617.03
2023-04-03T01:23:54.158Z,95607.69
2023-04-03T01:26:22.184Z,95618.94
2023-04-03T01:28:51.190Z,95613.88
2023-04-03T01:31:24.289Z,95616.50
2023-04-03T01:33:53.406Z,95616.50
2023-04-03T01:36:22.995Z,95626.78
2023-04-03T01:38:50.968Z,95618.13
2023-04-03T01:41:19.273Z,95620.72
2023-04-03T01:43:46.840Z,95628.56
2023-04-03T01:46:14.525Z,95625.94
2023-04-03T01:48:42.482Z,95630.22
2023-04-03T01:51:11.615Z,95618.94
2023-04-03T01:53:39.292Z,95620.72
2023-04-03T01:56:07.552Z,95618.13
2023-04-03T01:58:35.522Z,95615.41
2023-04-03T02:01:03.566Z,95612.06
2023-04-03T02:03:31.810Z,95617.16
2023-04-03T02:05:59.573Z,95610.97
2023-04-03T02:08:28.552Z,95620.63
2023-04-03T02:10:56.108Z,95619.63
2023-04-03T02:13:23.686Z,95618.00
2023-04-03T02:15:51.278Z,95618.94
2023-04-03T02:18:19.757Z,95610.19
2023-04-03T02:20:48.568Z,95618.81
2023-04-03T02:23:16.270Z,95615.41
2023-04-03T02:25:45.235Z,95609.19
2023-04-03T02:28:12.827Z,95611.81
2023-04-03T02:30:40.611Z,95607.41
2023-04-03T02:33:08.327Z,95610.03
2023-04-03T02:35:35.965Z,95608.09
2023-04-03T02:38:03.546Z,95608.09
2023-04-03T02:40:31.256Z,95609.88
2023-04-03T02:43:00.269Z,95606.31
2023-04-03T02:45:27.885Z,95611.53
2023-04-03T02:47:55.535Z,95614.94
2023-04-03T02:50:23.177Z,95608.94
2023-04-03T02:52:50.924Z,95605.34
2023-04-03T02:55:18.701Z,95607.13
2023-04-03T02:57:46.272Z,95607.94
2023-04-03T03:00:16.153Z,95607.94
2023-04-03T03:02:43.868Z,95607.13
2023-04-03T03:05:11.458Z,95621.00
2023-04-03T03:07:39.081Z,95620.16
2023-04-03T03:10:07.422Z,95614.94
2023-04-03T03:12:35.244Z,95614.94
2023-04-03T03:15:02.819Z,95615.78
2023-04-03T03:17:31.866Z,95619.22
2023-04-03T03:19:59.522Z,95609.72
2023-04-03T03:22:28.091Z,95615.78
2023-04-03T03:24:55.780Z,95612.34
2023-04-03T03:27:23.476Z,95617.56
2023-04-03T03:29:51.089Z,95613.19
2023-04-03T03:32:18.689Z,95611.66
2023-04-03T03:34:47.622Z,95614.94
2023-04-03T03:37:15.321Z,95623.63
2023-04-03T03:39:42.928Z,95619.22
2023-04-03T03:42:10.549Z,95618.28
2023-04-03T03:44:38.131Z,95614.00
2023-04-03T03:47:07.073Z,95613.06
2023-04-03T03:49:34.717Z,95616.47
2023-04-03T03:52:03.705Z,95613.84
2023-04-03T03:54:31.377Z,95624.19
2023-04-03T03:56:58.984Z,95613.75
2023-04-03T03:59:27.154Z,95616.34
2023-04-03T04:01:55.031Z,95610.16
2023-04-03T04:04:22.988Z,95612.75
2023-04-03T04:06:51.496Z,95609.22
2023-04-03T04:09:20.537Z,95611.81
2023-04-03T04:11:48.130Z,95610.84
2023-04-03T04:14:16.228Z,95615.78
2023-04-03T04:16:43.878Z,95613.19
2023-04-03T04:19:11.665Z,95620.03
2023-04-03T04:21:39.396Z,95620.75
2023-04-03T04:24:07.795Z,95618.16
2023-04-03T04:26:36.727Z,95628.59
2023-04-03T04:29:04.412Z,95621.56
2023-04-03T04:31:32.058Z,95614.56
2023-04-03T04:33:59.737Z,95624.16
2023-04-03T04:36:27.384Z,95625.81
2023-04-03T04:38:55.081Z,95628.44
2023-04-03T04:41:23.994Z,95624.06
2023-04-03T04:43:53.567Z,95626.66
2023-04-03T04:46:21.184Z,95630.22
2023-04-03T04:48:49.168Z,95629.28
2023-04-03T04:51:17.093Z,95631.06
2023-04-03T04:53:45.127Z,95632.84
2023-04-03T04:56:12.961Z,95635.28
2023-04-03T04:58:40.626Z,95629.28
2023-04-03T05:01:11.521Z,95627.47
2023-04-03T05:03:39.306Z,95631.88
2023-04-03T05:06:07.230Z,95632.84
2023-04-03T05:08:34.840Z,95636.28
2023-04-03T05:11:02.451Z,95636.28
2023-04-03T05:13:30.049Z,95632.84
2023-04-03T05:15:57.663Z,95634.50
2023-04-03T05:18:26.740Z,95643.97
2023-04-03T05:20:54.320Z,95637.91
2023-04-03T05:23:21.925Z,95641.34
2023-04-03T05:25:49.868Z,95643.97
2023-04-03T05:28:17.596Z,95646.56
2023-04-03T05:30:45.274Z,95641.34
2023-04-03T05:33:12.884Z,95637.91
2023-04-03T05:35:42.471Z,95649.19
2023-04-03T05:38:10.590Z,95642.19
2023-04-03T05:40:38.688Z,95649.19
2023-04-03T05:43:06.486Z,95638.88
2023-04-03T05:45:34.180Z,95649.19
2023-04-03T05:48:01.902Z,95647.25
2023-04-03T05:50:29.647Z,95655.09
2023-04-03T05:53:00.928Z,95653.31
2023-04-03T05:55:28.603Z,95657.59
2023-04-03T05:57:56.206Z,95644.66
2023-04-03T06:00:24.001Z,95648.91
2023-04-03T06:02:51.682Z,95658.38
2023-04-03T06:05:19.825Z,95648.91
2023-04-03T06:07:47.427Z,95654.97
2023-04-03T06:10:16.380Z,95648.78
2023-04-03T06:12:43.950Z,95656.59
2023-04-03T06:15:12.711Z,95658.38
2023-04-03T06:17:40.366Z,95663.59
2023-04-03T06:20:08.871Z,95653.16
2023-04-03T06:22:36.465Z,95663.59
2023-04-03T06:25:05.859Z,95662.81
2023-04-03T06:27:34.793Z,95663.59
2023-04-03T06:30:02.413Z,95661.97
2023-04-03T06:32:30.096Z,95671.44
2023-04-03T06:34:58.386Z,95664.59
2023-04-03T06:37:29.067Z,95673.94
2023-04-03T06:39:56.982Z,95667.06
2023-04-03T06:42:25.063Z,95668.84
2023-04-03T06:44:54.006Z,95671.44
2023-04-03T06:47:21.725Z,95665.41
2023-04-03T06:49:49.373Z,95675.03
2023-04-03T06:52:16.929Z,95676.00
2023-04-03T06:54:44.597Z,95670.09
2023-04-03T06:57:12.221Z,95671.03
2023-04-03T06:59:39.872Z,95671.19
2023-04-03T07:02:08.993Z,95680.78
2023-04-03T07:04:37.270Z,95679.16
2023-04-03T07:07:04.919Z,95679.16
2023-04-03T07:09:32.637Z,95688.78
2023-04-03T07:12:00.421Z,95687.00
2023-04-03T07:14:28.091Z,95688.78
2023-04-03T07:16:55.731Z,95684.50
2023-04-03T07:19:25.466Z,95695.63
2023-04-03T07:21:53.436Z,95696.63
2023-04-03T07:24:21.023Z,95692.22
2023-04-03T07:26:51.820Z,95694.84
2023-04-03T07:29:21.369Z,95695.63
2023-04-03T07:31:50.337Z,95692.22
2023-04-03T07:34:20.735Z,95701.69
2023-04-03T07:36:50.391Z,95706.91
2023-04-03T07:39:21.669Z,95705.13
2023-04-03T07:41:50.365Z,95712.00
2023-04-03T07:44:19.727Z,95706.91
2023-04-03T07:46:48.369Z,95712.00
2023-04-03T07:49:17.890Z,95715.44
2023-04-03T07:51:46.616Z,95715.59
2023-04-03T07:54:16.940Z,95717.34
2023-04-03T07:56:45.418Z,95721.63
2023-04-03T07:59:13.911Z,95714.59
2023-04-03T08:01:42.866Z,95714.59
2023-04-03T08:04:11.595Z,95720.81
2023-04-03T08:06:46.489Z,95721.63
2023-04-03T08:09:17.747Z,95723.41
2023-04-03T08:11:46.717Z,95725.19
2023-04-03T08:14:19.602Z,95726.84
2023-04-03T08:16:48.431Z,95728.63
2023-04-03T08:19:25.611Z,95732.19
2023-04-03T08:21:55.072Z,95732.09
2023-04-03T08:24:24.645Z,95734.69
2023-04-03T08:26:52.367Z,95737.16
2023-04-03T08:29:20.567Z,95728.50
2023-04-03T08:31:48.453Z,95738.94
2023-04-03T08:34:16.170Z,95729.47
2023-04-03T08:36:44.666Z,95736.34
2023-04-03T08:39:13.200Z,95731.09
2023-04-03T08:41:43.328Z,95734.56
2023-04-03T08:44:20.074Z,95738.94
2023-04-03T08:47:00.937Z,95741.56
2023-04-03T08:49:32.385Z,95741.56
2023-04-03T08:52:03.060Z,95740.88
2023-04-03T08:54:35.484Z,95742.53
2023-04-03T08:57:07.561Z,95738.09
2023-04-03T08:59:38.994Z,95735.50
2023-04-03T09:02:24.560Z,95740.72
2023-04-03T09:04:52.202Z,95739.78
2023-04-03T09:07:27.208Z,95738.81
2023-04-03T09:09:55.077Z,95743.22
2023-04-03T09:12:27.703Z,95747.59
2023-04-03T09:15:03.493Z,95747.47
2023-04-03T09:17:44.436Z,95741.44
2023-04-03T09:20:22.043Z,95743.22
2023-04-03T09:22:52.973Z,95749.13
2023-04-03T09:25:24.344Z,95743.91
2023-04-03T09:27:54.116Z,95745.69
2023-04-03T09:30:23.491Z,95745.69
2023-04-03T09:32:54.034Z,95737.00
2023-04-03T09:35:32.889Z,95738.69
2023-04-03T09:38:20.272Z,95744.06
2023-04-03T09:40:50.466Z,95740.47
2023-04-03T09:43:25.442Z,95738.81
2023-04-03T09:45:53.794Z,95742.25
2023-04-03T09:48:24.275Z,95746.53
2023-04-03T09:51:00.131Z,95738.81
2023-04-03T09:53:37.662Z,95727.00
2023-04-03T09:56:07.802Z,95734.16
2023-04-03T09:58:49.652Z,95737.72
2023-04-03T10:01:31.022Z,95732.47
2023-04-03T10:04:11.678Z,95728.22
2023-04-03T10:06:44.422Z,95732.47
2023-04-03T10:09:24.077Z,95737.84
2023-04-03T10:12:05.753Z,95736.06
2023-04-03T10:14:35.818Z,95738.69
2023-04-03T10:17:16.423Z,95731.78
2023-04-03T10:19:47.800Z,95733.47
2023-04-03T10:22:21.989Z,95730.84
2023-04-03T10:25:01.478Z,95733.59
2023-04-03T10:27:41.001Z,95730.00
2023-04-03T10:30:27.146Z,95716.94
2023-04-03T10:33:01.736Z,95730.84
2023-04-03T10:35:41.600Z,95730.00
2023-04-03T10:38:17.341Z,95724.78
2023-04-03T10:40:53.921Z,95727.41
2023-04-03T10:43:32.948Z,95736.91
2023-04-03T10:46:07.907Z,95732.47
2023-04-03T10:48:49.899Z,95729.88
2023-04-03T10:51:29.479Z,95731.69
2023-04-03T10:54:01.569Z,95732.47
2023-04-03T10:56:35.350Z,95737.59
2023-04-03T10:59:15.221Z,95730.69
2023-04-03T11:01:47.203Z,95741.03
2023-04-03T11:04:17.249Z,95739.22
2023-04-03T11:06:49.445Z,95731.53
2023-04-03T11:09:24.274Z,95733.19
2023-04-03T11:11:55.185Z,95737.59
2023-04-03T11:14:29.286Z,95735.81
2023-04-03T11:17:07.805Z,95738.41
2023-04-03T11:19:40.641Z,95735.81
2023-04-03T11:22:16.057Z,95730.59
2023-04-03T11:24:49.433Z,95734.16
2023-04-03T11:27:23.703Z,95725.47
2023-04-03T11:29:53.637Z,95722.03
2023-04-03T11:32:46.611Z,95723.69
2023-04-03T11:35:15.482Z,95722.88
2023-04-03T11:37:47.436Z,95723.69
2023-04-03T11:40:24.603Z,95722.03
2023-04-03T11:42:56.252Z,95714.19
2023-04-03T11:45:37.988Z,95716.81
2023-04-03T11:48:29.315Z,95714.19
2023-04-03T11:50:58.571Z,95716.00
2023-04-03T11:53:35.415Z,95710.78
2023-04-03T11:56:31.467Z,95718.63
2023-04-03T11:59:23.953Z,95716.13
2023-04-03T12:01:52.651Z,95707.34
2023-04-03T12:04:22.579Z,95709.13
2023-04-03T12:07:16.897Z,95711.72
2023-04-03T12:09:59.907Z,95702.94
2023-04-03T12:12:37.400Z,95706.38
2023-04-03T12:15:21.723Z,95710.78
2023-04-03T12:17:49.757Z,95707.19
2023-04-03T12:20:57.158Z,95699.34
2023-04-03T12:23:34.193Z,95697.72
2023-04-03T12:26:05.774Z,95700.19
2023-04-03T12:28:39.768Z,95703.75
2023-04-03T12:31:11.816Z,95701.97
2023-04-03T12:33:57.759Z,95699.34
2023-04-03T12:36:32.629Z,95696.75
2023-04-03T12:39:17.534Z,95698.53
2023-04-03T12:41:59.714Z,95695.91
2023-04-03T12:44:39.967Z,95691.66
2023-04-03T12:47:24.788Z,95690.84
2023-04-03T12:49:54.066Z,95683.00
2023-04-03T12:52:32.395Z,95684.66
2023-04-03T12:55:05.037Z,95688.06
2023-04-03T12:57:33.862Z,95676.00
2023-04-03T13:00:02.026Z,95676.84
2023-04-03T13:02:32.467Z,95679.44
2023-04-03T13:05:02.207Z,95682.06
2023-04-03T13:07:34.328Z,95685.47
2023-04-03T13:10:15.540Z,95679.44
2023-04-03T13:12:49.053Z,95668.31
2023-04-03T13:15:21.015Z,95674.22
2023-04-03T13:17:51.133Z,95673.38
2023-04-03T13:20:23.487Z,95673.38
2023-04-03T13:22:55.860Z,95676.84
2023-04-03T13:25:27.973Z,95667.34
2023-04-03T13:28:10.097Z,95658.66
2023-04-03T13:30:42.432Z,95657.72
2023-04-03T13:33:22.915Z,95664.72
2023-04-03T13:35:57.778Z,95659.50
2023-04-03T13:38:32.251Z,95662.09
2023-04-03T13:41:03.676Z,95657.72
2023-04-03T13:43:33.833Z,95660.31
2023-04-03T13:46:06.705Z,95651.66
2023-04-03T13:48:39.810Z,95651.50
2023-04-03T13:51:18.521Z,95649.03
2023-04-03T13:53:49.694Z,95647.28
2023-04-03T13:56:26.409Z,95652.50
2023-04-03T13:58:59.201Z,95656.75
2023-04-03T14:01:28.085Z,95653.31
2023-04-03T14:03:58.526Z,95654.13
2023-04-03T14:06:26.820Z,95654.94
2023-04-03T14:08:54.691Z,95648.91
2023-04-03T14:11:28.174Z,95653.31
2023-04-03T14:13:57.399Z,95652.34
2023-04-03T14:16:28.843Z,95648.91
2023-04-03T14:18:56.425Z,95652.34
2023-04-03T14:21:24.211Z,95647.28
2023-04-03T14:23:52.099Z,95642.88
2023-04-03T14:26:22.356Z,95642.03
2023-04-03T14:28:53.414Z,95636.81
2023-04-03T14:31:22.738Z,95641.22
2023-04-03T14:33:50.738Z,95637.66
2023-04-03T14:36:21.685Z,95634.22
2023-04-03T14:38:50.030Z,95631.59
2023-04-03T14:41:21.370Z,95633.38
2023-04-03T14:43:51.853Z,95636.00
2023-04-03T14:46:26.382Z,95629.00
2023-04-03T14:48:55.295Z,95630.75
2023-04-03T14:51:23.018Z,95628.16
2023-04-03T14:53:51.097Z,95630.75
2023-04-03T14:56:23.302Z,95630.75
2023-04-03T14:58:55.926Z,95629.94
2023-04-03T15:01:23.800Z,95625.53
2023-04-03T15:03:51.593Z,95632.53
2023-04-03T15:06:19.624Z,95628.16
2023-04-03T15:08:49.300Z,95624.72
2023-04-03T15:11:17.092Z,95626.53
2023-04-03T15:13:45.333Z,95631.75
2023-04-03T15:16:18.311Z,95622.94
2023-04-03T15:18:47.581Z,95626.38
2023-04-03T15:21:16.179Z,95636.81
2023-04-03T15:23:43.991Z,95638.59
2023-04-03T15:26:11.757Z,95646.28
2023-04-03T15:28:41.349Z,95633.38
2023-04-03T15:31:09.849Z,95640.13
2023-04-03T15:33:39.217Z,95635.03
2023-04-03T15:36:17.091Z,95639.44
2023-04-03T15:38:50.478Z,95635.84
2023-04-03T15:41:18.189Z,95639.28
2023-04-03T15:43:45.914Z,95636.81
2023-04-03T15:46:14.930Z,95635.84
2023-04-03T15:48:44.618Z,95641.91
2023-04-03T15:51:12.529Z,95638.44
2023-04-03T15:53:40.333Z,95640.25
2023-04-03T15:56:09.188Z,95631.44
2023-04-03T15:58:36.840Z,95635.03
2023-04-03T16:01:04.586Z,95634.06
2023-04-03T16:03:32.670Z,95630.63
2023-04-03T16:06:03.060Z,95636.69
2023-04-03T16:08:30.790Z,95634.06
2023-04-03T16:10:58.370Z,95636.69
2023-04-03T16:13:25.959Z,95634.06
2023-04-03T16:15:53.721Z,95644.50
2023-04-03T16:18:21.379Z,95634.91
2023-04-03T16:20:49.447Z,95639.28
2023-04-03T16:25:51.276Z,95645.34
2023-04-03T16:28:19.958Z,95646.16
2023-04-03T16:30:48.831Z,95654.84
2023-04-03T16:33:16.799Z,95654.94
2023-04-03T16:35:45.088Z,95654.00
2023-04-03T16:38:12.793Z,95647.94
2023-04-03T16:40:41.794Z,95657.44
2023-04-03T16:43:10.253Z,95663.63
2023-04-03T16:45:38.172Z,95672.28
2023-04-03T16:48:07.010Z,95671.47
2023-04-03T16:50:34.851Z,95672.28
2023-04-03T16:53:03.856Z,95662.69
2023-04-03T16:55:31.569Z,95667.06
2023-04-03T16:58:00.680Z,95667.91
2023-04-03T17:00:28.344Z,95669.53
2023-04-03T17:02:56.021Z,95666.09
2023-04-03T17:05:25.149Z,95670.38
2023-04-03T17:07:53.067Z,95669.53
2023-04-03T17:10:20.915Z,95663.47
2023-04-03T17:12:48.575Z,95666.78
2023-04-03T17:15:17.633Z,95668.59
2023-04-03T17:17:45.432Z,95678.19
2023-04-03T17:20:13.756Z,95670.38
2023-04-03T17:22:41.549Z,95675.59
2023-04-03T17:25:09.692Z,95680.81
2023-04-03T17:27:37.285Z,95675.59
2023-04-03T17:30:06.110Z,95670.38
2023-04-03T17:32:35.165Z,95678.19
2023-04-03T17:35:02.834Z,95679.16
2023-04-03T17:37:30.432Z,95684.25
2023-04-03T17:39:58.046Z,95688.66
2023-04-03T17:42:25.664Z,95675.59
2023-04-03T17:44:53.304Z,95688.66
2023-04-03T17:47:20.909Z,95686.88
2023-04-03T17:49:51.486Z,95687.66
2023-04-03T17:52:19.141Z,95690.28
2023-04-03T17:54:46.808Z,95692.91
2023-04-03T17:57:14.428Z,95696.34
2023-04-03T17:59:42.048Z,95697.16
2023-04-03T18:02:09.684Z,95697.16
2023-04-03T18:04:37.324Z,95699.78
2023-04-03T18:07:09.531Z,95695.38
2023-04-03T18:09:39.449Z,95705.94
2023-04-03T18:12:09.006Z,95705.84
2023-04-03T18:14:38.364Z,95704.16
2023-04-03T18:17:06.199Z,95705.00
2023-04-03T18:19:34.094Z,95705.56
2023-04-03T18:22:04.510Z,95708.28
2023-04-03T18:24:35.498Z,95722.84
2023-04-03T18:27:07.257Z,95718.03
2023-04-03T18:29:37.375Z,95720.91
2023-04-03T18:32:05.418Z,95727.59
2023-04-03T18:34:33.118Z,95726.47
2023-04-03T18:37:01.550Z,95727.53
2023-04-03T18:39:29.114Z,95726.56
2023-04-03T18:42:00.345Z,95730.53
2023-04-03T18:44:28.980Z,95736.84
2023-04-03T18:46:59.776Z,95729.69
2023-04-03T18:49:29.728Z,95735.84
2023-04-03T18:51:57.428Z,95742.16
2023-04-03T18:54:25.189Z,95741.06
2023-04-03T18:56:52.817Z,95737.19
2023-04-03T18:59:21.900Z,95735.78
2023-04-03T19:01:49.654Z,95733.88
2023-04-03T19:04:17.484Z,95738.41
2023-04-03T19:06:45.623Z,95750.75
2023-04-03T19:09:13.380Z,95746.38
2023-04-03T19:11:41.378Z,95752.78
2023-04-03T19:16:41.108Z,95750.00
2023-04-03T19:19:08.797Z,95755.91
2023-04-03T19:21:40.815Z,95759.34
2023-04-03T19:24:09.545Z,95756.88
2023-04-03T19:26:37.290Z,95759.47
2023-04-03T19:29:04.980Z,95762.19
2023-04-03T19:31:33.824Z,95758.47
2023-04-03T19:34:04.020Z,95758.59
2023-04-03T19:36:32.026Z,95765.72
2023-04-03T19:38:59.800Z,95760.78
2023-04-03T19:41:30.809Z,95758.28
2023-04-03T19:43:59.107Z,95756.34
2023-04-03T19:46:28.912Z,95758.41
2023-04-03T19:48:57.152Z,95758.56
2023-04-03T19:51:26.400Z,95756.63
2023-04-03T19:53:54.558Z,95760.19
2023-04-03T19:56:23.425Z,95758.78
2023-04-03T19:58:54.025Z,95759.63
2023-04-03T20:01:22.559Z,95764.69
2023-04-03T20:03:50.274Z,95764.47
2023-04-03T20:06:17.911Z,95765.16
2023-04-03T20:08:46.887Z,95770.22
2023-04-03T20:11:14.910Z,95763.09
2023-04-03T20:13:42.498Z,95766.78
2023-04-03T20:16:10.296Z,95769.28
2023-04-03T20:18:38.701Z,95758.97
2023-04-03T20:21:08.173Z,95764.88
2023-04-03T20:23:37.197Z,95767.38
2023-04-03T20:26:12.665Z,95759.94
2023-04-03T20:28:43.652Z,95763.50
2023-04-03T20:31:13.058Z,95766.78
2023-04-03T20:33:40.675Z,95763.25
2023-04-03T20:36:09.085Z,95760.50
2023-04-03T20:38:36.715Z,95757.88
2023-04-03T20:41:05.780Z,95763.94
2023-04-03T20:43:33.483Z,95752.44
2023-04-03T20:46:02.190Z,95765.34
2023-04-03T20:48:31.092Z,95767.78
2023-04-03T20:50:59.155Z,95764.38
2023-04-03T20:53:27.138Z,95758.47
2023-04-03T20:55:59.899Z,95753.38
2023-04-03T20:58:30.229Z,95763.69
2023-04-03T21:00:58.352Z,95752.28
2023-04-03T21:03:27.146Z,95758.47
2023-04-03T21:05:59.704Z,95759.28
2023-04-03T21:09:04.510Z,95755.03
2023-04-03T21:12:09.639Z,95755.97
2023-04-03T21:15:14.631Z,95751.03
2023-04-03T21:18:06.359Z,95756.25
2023-04-03T21:20:34.087Z,95752.81
2023-04-03T21:23:01.745Z,95754.59
2023-04-03T21:25:29.712Z,95751.97
2023-04-03T21:27:57.588Z,95755.28
2023-04-03T21:30:25.938Z,95753.50
2023-04-03T21:32:54.953Z,95755.41
2023-04-03T21:35:22.708Z,95753.88
2023-04-03T21:37:50.345Z,95754.59
2023-04-03T21:40:18.665Z,95753.19
2023-04-03T21:42:46.297Z,95754.44
2023-04-03T21:45:16.427Z,95757.38
2023-04-03T21:47:44.789Z,95751.66
2023-04-03T21:50:13.960Z,95745.91
2023-04-03T21:52:42.462Z,95745.53
2023-04-03T21:55:11.202Z,95737.31
2023-04-03T21:57:38.778Z,95742.97
2023-04-03T22:00:11.054Z,95737.47
2023-04-03T22:02:40.692Z,95737.22
2023-04-03T22:05:08.986Z,95737.09
2023-04-03T22:07:38.183Z,95733.53
2023-04-03T22:10:06.507Z,95730.63
2023-04-03T22:12:34.119Z,95734.91
2023-04-03T22:15:02.267Z,95730.53
2023-04-03T22:17:31.416Z,95733.00
2023-04-03T22:19:59.029Z,95729.41
2023-04-03T22:22:27.096Z,95732.75
2023-04-03T22:24:56.046Z,95735.34
2023-04-03T22:27:23.684Z,95725.59
2023-04-03T22:29:51.357Z,95728.06
2023-04-03T22:32:19.011Z,95725.47
2023-04-03T22:34:46.743Z,95730.69
2023-04-03T22:37:14.473Z,95727.94
2023-04-03T22:39:42.210Z,95731.38
2023-04-03T22:42:11.236Z,95724.38
2023-04-03T22:44:38.831Z,95724.38
2023-04-03T22:47:06.695Z,95724.38
2023-04-03T22:49:34.422Z,95720.00
2023-04-03T22:52:02.081Z,95718.06
2023-04-03T22:54:29.707Z,95727.69
2023-04-03T22:56:57.331Z,95727.53
2023-04-03T22:59:26.338Z,95726.63
2023-04-03T23:01:54.941Z,95724.00
2023-04-03T23:04:22.599Z,95724.84
2023-04-03T23:06:50.238Z,95730.88
2023-04-03T23:09:17.896Z,95727.47
2023-04-03T23:11:46.550Z,95735.28
2023-04-03T23:14:14.156Z,95726.47
2023-04-03T23:16:43.294Z,95717.72
2023-04-03T23:19:11.212Z,95728.16
2023-04-03T23:21:39.286Z,95721.13
2023-04-03T23:24:07.366Z,95722.78
2023-04-03T23:26:34.985Z,95723.63
2023-04-03T23:29:02.699Z,95721.94
2023-04-03T23:31:30.321Z,95722.66
2023-04-03T23:33:59.272Z,95719.19
2023-04-03T23:36:27.228Z,95720.88
2023-04-03T23:38:57.081Z,95719.09
2023-04-03T23:41:24.860Z,95719.09
2023-04-03T23:43:52.654Z,95720.72
2023-04-03T23:46:20.509Z,95721.56
2023-04-03T23:48:48.163Z,95722.53
2023-04-03T23:51:17.175Z,95726.63
2023-04-03T23:53:44.786Z,95722.38
2023-04-03T23:56:13.200Z,95719.78
2023-04-03T23:58:40.849Z,95717.16
